Station Historical Data
Daily Summary for May 3, 2017 Units:  Metric    English   Both
« Previous Day
Next Day »
Daily Weekly Monthly Yearly Custom
  High: Low: Average:
Temperature: 28.9 °C 13.3 °C 20.8 °C
Dew Point: 10.8 °C 5.6 °C 7.9 °C
Humidity: 81% 24% 46%
Wind Speed: 1.6km/h 0km/h 0km/h
Wind Gust: 4.8km/h - -
Wind- - West
Pressure: 1019.2 hPa 1014.1 hPa -
Precipitation: 0 mm    
Historical Graphs
 
 
Tabular Data for May 3, 2017
Time Temperature Dew Point Pressure Wind Wind Speed Wind Gust Humidity Rainfall Rate (Hourly) solar Conditions
00:00 15.3 °C 6.6 °C 1017.8 hPa Calm     56% 0 mm WeatherDisplay:10.37 W/m2 SCT
00:15 15.3 °C 6 °C 1017.8 hPa Calm     54% 0 mm WeatherDisplay:10.37 W/m2 SCT
00:30 15.3 °C 6 °C 1017.8 hPa Calm     54% 0 mm WeatherDisplay:10.37 W/m2 SCT
00:45 15.3 °C 6 °C 1017.8 hPa Calm     54% 0 mm WeatherDisplay:10.37 W/m2 SCT
01:00 15.4 °C 5.9 °C 1017.8 hPa Calm     53% 0 mm WeatherDisplay:10.37 W/m2 SCT
01:15 15.4 °C 5.6 °C 1017.8 hPa Calm     52% 0 mm WeatherDisplay:10.37 W/m2 SCT
01:30 15.6 °C 5.8 °C 1017.8 hPa Calm     52% 0 mm WeatherDisplay:10.37 W/m2 SCT
01:45 15.4 °C 5.6 °C 1017.8 hPa Calm     52% 0 mm WeatherDisplay:10.37 W/m2 SCT
02:00 15.5 °C 6.5 °C 1017.8 hPa Calm     55% 0 mm WeatherDisplay:10.37 W/m2 SCT
02:15 15.3 °C 6.6 °C 1017.8 hPa Calm     56% 0 mm WeatherDisplay:10.37 W/m2 SCT
02:30 15.2 °C 6.7 °C 1017.5 hPa Calm     57% 0 mm WeatherDisplay:10.37 W/m2 SCT
03:00 15.1 °C 6.6 °C 1017.5 hPa Calm     57% 0 mm WeatherDisplay:10.37 W/m2 SCT
03:15 14.8 °C 6.6 °C 1017.5 hPa Calm     58% 0 mm WeatherDisplay:10.37 W/m2 SCT
03:30 14.9 °C 6.7 °C 1017.5 hPa Calm     58% 0 mm WeatherDisplay:10.37 W/m2 SCT
03:45 14.3 °C 6.2 °C 1017.5 hPa Calm     58% 0 mm WeatherDisplay:10.37 W/m2 SCT
04:00 14.3 °C 6.2 °C 1017.5 hPa Calm     58% 0 mm WeatherDisplay:10.37 W/m2 SCT
04:15 14.3 °C 6.2 °C 1017.5 hPa Calm     58% 0 mm WeatherDisplay:10.37 W/m2 SCT
04:30 14.3 °C 6.2 °C 1017.5 hPa Calm     58% 0 mm WeatherDisplay:10.37 W/m2 SCT
04:45 14.3 °C 6.2 °C 1017.5 hPa Calm     58% 0 mm WeatherDisplay:10.37 W/m2 SCT
05:00 14.3 °C 6.2 °C 1017.5 hPa Calm     58% 0 mm WeatherDisplay:10.37 W/m2 SCT
05:15 14.3 °C 6.2 °C 1017.5 hPa Calm     58% 0 mm WeatherDisplay:10.37 W/m2 SCT
05:30 14.3 °C 6.2 °C 1017.5 hPa Calm     58% 0 mm WeatherDisplay:10.37 W/m2 SCT
05:45 14.3 °C 6.2 °C 1017.8 hPa Calm     58% 0 mm WeatherDisplay:10.37 W/m2 SCT
06:00 14.3 °C 6.2 °C 1017.8 hPa Calm     58% 0 mm WeatherDisplay:10.37 W/m2 SCT
06:15 14.3 °C 6.2 °C 1017.8 hPa Calm     58% 0 mm WeatherDisplay:10.37 W/m2 SCT
06:30 14.3 °C 6.2 °C 1017.8 hPa Calm     58% 0 mm WeatherDisplay:10.37 W/m2 SCT
06:45 14.3 °C 6.2 °C 1017.8 hPa Calm     58% 0 mm WeatherDisplay:10.37 W/m2 SCT
07:00 14.3 °C 6.2 °C 1017.8 hPa Calm     58% 0 mm WeatherDisplay:10.37 W/m2 SCT
07:15 14.3 °C 6.2 °C 1018.2 hPa Calm     58% 0 mm WeatherDisplay:10.37 W/m2 SCT
07:30 14.3 °C 6.2 °C 1018.2 hPa Calm     58% 0 mm WeatherDisplay:10.37 W/m2 SCT
07:45 14.3 °C 6.2 °C 1018.2 hPa Calm     58% 0 mm WeatherDisplay:10.37 W/m2 SCT
08:00 14.3 °C 6.2 °C 1018.2 hPa Calm     58% 0 mm WeatherDisplay:10.37 W/m2 SCT
08:15 13.3 °C 10.2 °C 1018.5 hPa Calm     81% 0 mm WeatherDisplay:10.37 W/m2 SCT
08:30 14.3 °C 10.8 °C 1018.8 hPa Calm     80% 0 mm WeatherDisplay:10.37 W/m2 SCT
08:45 14.1 °C 10.7 °C 1018.8 hPa Calm     80% 0 mm WeatherDisplay:10.37 W/m2 SCT
09:00 14.1 °C 10.7 °C 1018.8 hPa Calm     80% 0 mm WeatherDisplay:10.37 W/m2 SCT
09:15 14.1 °C 10.7 °C 1018.8 hPa Calm     80% 0 mm WeatherDisplay:10.37 W/m2 SCT
09:30 20.3 °C 9.9 °C 1018.8 hPa Calm     51% 0 mm WeatherDisplay:10.37 W/m2 SCT
09:45 14.1 °C 10.7 °C 1018.8 hPa Calm     80% 0 mm WeatherDisplay:10.37 W/m2 SCT
10:00 21.5 °C 10 °C 1019.2 hPa Calm   3.2 km/h 48% 0 mm WeatherDisplay:10.37 W/m2 SCT
10:15 21.5 °C 10 °C 1019.2 hPa Calm     48% 0 mm WeatherDisplay:10.37 W/m2 SCT
10:30 21.5 °C 10 °C 1019.2 hPa Calm     48% 0 mm WeatherDisplay:10.37 W/m2 SCT
10:45 21.5 °C 10 °C 1019.2 hPa Calm     48% 0 mm WeatherDisplay:10.37 W/m2 SCT
11:00 23.8 °C 8.2 °C 1018.8 hPa Calm   1.6 km/h 37% 0 mm WeatherDisplay:10.37 W/m2 SCT
11:15 21.5 °C 10 °C 1019.2 hPa Calm     48% 0 mm WeatherDisplay:10.37 W/m2 SCT
11:30 24.6 °C 8.1 °C 1018.8 hPa Calm   1.6 km/h 35% 0 mm WeatherDisplay:10.37 W/m2 SCT
11:45 24.8 °C 6.9 °C 1018.5 hPa Calm   3.2 km/h 32% 0 mm WeatherDisplay:10.37 W/m2 SCT
12:00 25.4 °C 8.9 °C 1018.5 hPa Calm   3.2 km/h 35% 0 mm WeatherDisplay:10.37 W/m2 SCT
12:15 25.8 °C 8.3 °C 1018.2 hPa Calm   3.2 km/h 33% 0 mm WeatherDisplay:10.37 W/m2 SCT
12:30 27 °C 8.9 °C 1017.8 hPa Calm   1.6 km/h 32% 0 mm WeatherDisplay:10.37 W/m2 SCT
12:45 27.3 °C 6.1 °C 1017.8 hPa West 1.6 km/h 3.2 km/h 26% 0 mm WeatherDisplay:10.37 W/m2 SCT
13:00 21.5 °C 10 °C 1019.2 hPa Calm     48% 0 mm WeatherDisplay:10.37 W/m2 SCT
13:15 28.5 °C 5.9 °C 1016.5 hPa Calm   3.2 km/h 24% 0 mm WeatherDisplay:10.37 W/m2 SCT
13:30 28.9 °C 8 °C 1016.1 hPa Calm   3.2 km/h 27% 0 mm WeatherDisplay:10.37 W/m2 SCT
13:45 28.7 °C 7.8 °C 1015.8 hPa Calm   1.6 km/h 27% 0 mm WeatherDisplay:10.37 W/m2 SCT
14:00 28.8 °C 7.9 °C 1015.8 hPa Calm     27% 0 mm WeatherDisplay:10.37 W/m2 SCT
14:15 28.4 °C 6.4 °C 1015.5 hPa Calm   4.8 km/h 25% 0 mm WeatherDisplay:10.37 W/m2 SCT
14:30 28.4 °C 5.9 °C 1015.1 hPa Calm   3.2 km/h 24% 0 mm WeatherDisplay:10.37 W/m2 SCT
14:45 28.8 °C 7.9 °C 1015.8 hPa Calm     27% 0 mm WeatherDisplay:10.37 W/m2 SCT
15:00 28.8 °C 7.9 °C 1015.8 hPa Calm     27% 0 mm WeatherDisplay:10.37 W/m2 SCT
15:15 28 °C 7.3 °C 1015.5 hPa Calm     27% 0 mm WeatherDisplay:10.37 W/m2 SCT
15:30 28.2 °C 7.4 °C 1015.5 hPa Calm   4.8 km/h 27% 0 mm WeatherDisplay:10.37 W/m2 SCT
15:45 27.9 °C 7.2 °C 1015.8 hPa Calm     27% 0 mm WeatherDisplay:10.37 W/m2 SCT
16:00 27.8 °C 7.1 °C 1015.5 hPa Calm   1.6 km/h 27% 0 mm WeatherDisplay:10.37 W/m2 SCT
16:15 27.8 °C 6.5 °C 1015.1 hPa Calm   1.6 km/h 26% 0 mm WeatherDisplay:10.37 W/m2 SCT
16:30 27.6 °C 6.4 °C 1015.1 hPa Calm   4.8 km/h 26% 0 mm WeatherDisplay:10.37 W/m2 SCT
16:45 27.8 °C 7.1 °C 1015.5 hPa Calm     27% 0 mm WeatherDisplay:10.37 W/m2 SCT
17:00 27.4 °C 7.3 °C 1014.8 hPa Calm   1.6 km/h 28% 0 mm WeatherDisplay:10.37 W/m2 SCT
17:15 27.3 °C 7.7 °C 1014.8 hPa Calm   1.6 km/h 29% 0 mm WeatherDisplay:10.37 W/m2 SCT
17:30 27.4 °C 7.3 °C 1014.8 hPa Calm     28% 0 mm WeatherDisplay:10.37 W/m2 SCT
17:45 27.1 °C 8.4 °C 1014.8 hPa Calm   3.2 km/h 31% 0 mm WeatherDisplay:10.37 W/m2 SCT
18:00 26.9 °C 8.8 °C 1014.8 hPa Calm   3.2 km/h 32% 0 mm WeatherDisplay:10.37 W/m2 SCT
18:15 26.6 °C 9 °C 1014.8 hPa Calm   1.6 km/h 33% 0 mm WeatherDisplay:10.37 W/m2 SCT
18:30 26.4 °C 8.9 °C 1014.8 hPa Calm     33% 0 mm WeatherDisplay:10.37 W/m2 SCT
18:45 26.4 °C 8.9 °C 1014.8 hPa Calm     33% 0 mm WeatherDisplay:10.37 W/m2 SCT
19:00 25.4 °C 9.7 °C 1014.8 hPa Calm     37% 0 mm WeatherDisplay:10.37 W/m2 SCT
19:15 25.3 °C 8.7 °C 1014.4 hPa Calm   3.2 km/h 35% 0 mm WeatherDisplay:10.37 W/m2 SCT
19:30 24.9 °C 9.3 °C 1014.4 hPa Calm     37% 0 mm WeatherDisplay:10.37 W/m2 SCT
19:45 24.6 °C 8.5 °C 1014.1 hPa Calm     36% 0 mm WeatherDisplay:10.37 W/m2 SCT
20:00 24.7 °C 8.2 °C 1014.4 hPa Calm     35% 0 mm WeatherDisplay:10.37 W/m2 SCT
20:15 24 °C 8.4 °C 1014.1 hPa Calm     37% 0 mm WeatherDisplay:10.37 W/m2 SCT
20:30 24 °C 8.4 °C 1014.1 hPa Calm     37% 0 mm WeatherDisplay:10.37 W/m2 SCT
20:45 22.9 °C 10.1 °C 1014.1 hPa Calm     44% 0 mm WeatherDisplay:10.37 W/m2 SCT
21:00 22.6 °C 10.1 °C 1014.1 hPa Calm     45% 0 mm WeatherDisplay:10.37 W/m2 SCT
21:15 22.1 °C 9.3 °C 1014.4 hPa Calm     44% 0 mm WeatherDisplay:10.37 W/m2 SCT
21:30 21.6 °C 10.1 °C 1014.8 hPa Calm     48% 0 mm WeatherDisplay:10.37 W/m2 SCT
21:45 21.4 °C 9.9 °C 1014.8 hPa Calm     48% 0 mm WeatherDisplay:10.37 W/m2 SCT
22:00 21.4 °C 9.9 °C 1014.8 hPa Calm     48% 0 mm WeatherDisplay:10.37 W/m2 SCT
22:15 21.1 °C 9.7 °C 1014.4 hPa Calm     48% 0 mm WeatherDisplay:10.37 W/m2 SCT
22:30 21.1 °C 10 °C 1014.4 hPa Calm     49% 0 mm WeatherDisplay:10.37 W/m2 SCT
22:45 21.1 °C 10 °C 1014.4 hPa Calm     49% 0 mm WeatherDisplay:10.37 W/m2 SCT
23:00 21.1 °C 9.7 °C 1014.1 hPa Calm     48% 0 mm WeatherDisplay:10.37 W/m2 SCT
23:15 21.2 °C 9.8 °C 1014.4 hPa Calm     48% 0 mm WeatherDisplay:10.37 W/m2 SCT
23:30 21.2 °C 9.8 °C 1014.4 hPa Calm     48% 0 mm WeatherDisplay:10.37 W/m2 SCT
23:45 21.2 °C 10.1 °C 1014.1 hPa Calm     49% 0 mm WeatherDisplay:10.37 W/m2 SCT
Piedmont Bend
Compliments of Weather Underground - 4 mb